Time;durP1;ratioP1;P1;durP2;ratioP2;P2;SDS_P1;SDS_P2;PMS_P1;PMS_P2;Temp;Humidity;BMP_temperature;BMP_pressure;BME280_temperature;BME280_humidity;BME280_pressure;Samples;Min_cycle;Max_cycle;Signal;HPM_P1;HPM_P2
2023/07/01 00:00:07;;;;;;;;;;;20.90;72.70;;;;;;4985952;28;1256;-68
2023/07/01 00:02:33;;;;;;;;;;;20.90;72.70;;;;;;4987821;28;795;-68
2023/07/01 00:04:59;;;;;;;;;;;20.80;72.60;;;;;;4988737;28;904;-68
2023/07/01 00:07:24;;;;;;;;;;;20.90;72.80;;;;;;4989829;28;915;-68
2023/07/01 00:09:50;;;;;;;;;;;20.90;72.70;;;;;;4990546;28;1964;-68
2023/07/01 00:12:15;;;;;;;;;;;20.80;72.70;;;;;;4991534;28;801;-68
2023/07/01 00:14:41;;;;;;;;;;;20.90;72.70;;;;;;4987604;28;872;-68
2023/07/01 00:17:09;;;;;;;;;;;20.90;72.70;;;;;;4984248;28;936;-68
2023/07/01 00:19:35;;;;;;;;;;;20.90;72.70;;;;;;4988983;28;1249;-68
2023/07/01 00:22:02;;;;;;;;;;;20.90;72.70;;;;;;4984333;28;854;-68
2023/07/01 00:24:27;;;;;;;;;;;20.90;72.70;;;;;;4987344;28;911;-68
2023/07/01 00:26:52;;;;;;;;;;;20.90;72.70;;;;;;4989719;28;1039;-69
2023/07/01 00:29:18;;;;;;;;;;;20.90;72.70;;;;;;4981577;28;1903;-69
2023/07/01 00:31:43;;;;;;;;;;;20.90;72.70;;;;;;4984734;28;919;-69
2023/07/01 00:34:09;;;;;;;;;;;20.90;72.70;;;;;;4987211;28;1046;-69
2023/07/01 00:36:34;;;;;;;;;;;20.90;72.70;;;;;;4983217;28;864;-69
2023/07/01 00:39:00;;;;;;;;;;;20.90;72.70;;;;;;4990862;28;948;-69
2023/07/01 00:41:25;;;;;;;;;;;20.90;72.70;;;;;;4989053;28;1348;-68
2023/07/01 00:43:51;;;;;;;;;;;20.90;72.70;;;;;;4990618;28;1332;-69
2023/07/01 00:46:16;;;;;;;;;;;20.90;72.70;;;;;;4987053;28;867;-69
2023/07/01 00:48:42;;;;;;;;;;;20.90;72.70;;;;;;4988676;28;1965;-71
2023/07/01 00:51:07;;;;;;;;;;;20.80;72.70;;;;;;4989794;28;1253;-70
2023/07/01 00:53:33;;;;;;;;;;;20.90;72.80;;;;;;4991374;28;935;-68
2023/07/01 00:55:58;;;;;;;;;;;20.80;72.70;;;;;;4988826;28;849;-69
2023/07/01 00:58:24;;;;;;;;;;;20.90;72.80;;;;;;4985430;28;1089;-69
2023/07/01 01:00:49;;;;;;;;;;;20.90;72.70;;;;;;4985746;28;1290;-69
2023/07/01 01:03:29;;;;;;;;;;;20.90;72.70;;;;;;4986169;28;896;-69
2023/07/01 01:06:13;;;;;;;;;;;20.90;72.70;;;;;;4983571;28;896;-69
2023/07/01 01:08:57;;;;;;;;;;;20.80;72.70;;;;;;4982814;28;1899;-69
2023/07/01 01:11:22;;;;;;;;;;;20.80;72.70;;;;;;4986980;28;1265;-69
2023/07/01 01:13:48;;;;;;;;;;;20.80;72.70;;;;;;4988080;28;1002;-68
2023/07/01 01:16:14;;;;;;;;;;;20.90;73.50;;;;;;4982238;28;812;-69
2023/07/01 01:18:42;;;;;;;;;;;20.80;72.70;;;;;;4986500;28;888;-70
2023/07/01 01:21:07;;;;;;;;;;;20.80;72.70;;;;;;4988178;28;1252;-69
2023/07/01 01:23:35;;;;;;;;;;;20.80;72.80;;;;;;4983534;28;824;-69
2023/07/01 01:26:06;;;;;;;;;;;20.90;72.70;;;;;;4986712;28;1093;-69
2023/07/01 01:28:33;;;;;;;;;;;20.80;72.70;;;;;;4982975;28;1894;-69
2023/07/01 01:30:58;;;;;;;;;;;20.90;72.70;;;;;;4984876;28;1335;-69
2023/07/01 01:33:24;;;;;;;;;;;20.80;72.70;;;;;;4987572;28;863;-69
2023/07/01 01:35:50;;;;;;;;;;;20.80;72.70;;;;;;4982458;28;910;-70
2023/07/01 01:38:22;;;;;;;;;;;20.80;72.80;;;;;;4983011;28;1462;-70
2023/07/01 01:40:52;;;;;;;;;;;20.90;72.80;;;;;;4990364;28;1285;-70
2023/07/01 01:43:34;;;;;;;;;;;20.80;72.70;;;;;;4989536;28;1009;-71
2023/07/01 01:46:00;;;;;;;;;;;20.90;72.80;;;;;;4985378;28;839;-70
2023/07/01 01:48:26;;;;;;;;;;;20.90;72.80;;;;;;4985939;28;2077;-70
2023/07/01 01:50:51;;;;;;;;;;;20.80;72.70;;;;;;4986423;28;1297;-69
2023/07/01 01:53:17;;;;;;;;;;;20.80;72.70;;;;;;4990057;28;857;-70
2023/07/01 01:55:42;;;;;;;;;;;20.80;72.70;;;;;;4981489;28;1093;-70
2023/07/01 01:58:08;;;;;;;;;;;20.80;72.70;;;;;;4983158;28;863;-69
2023/07/01 02:00:34;;;;;;;;;;;20.80;72.70;;;;;;4986654;28;1261;-70
2023/07/01 02:02:59;;;;;;;;;;;20.80;72.70;;;;;;4986025;28;966;-69
2023/07/01 02:05:25;;;;;;;;;;;20.80;72.70;;;;;;4984278;28;944;-69
2023/07/01 02:07:50;;;;;;;;;;;20.80;72.70;;;;;;4979385;28;1902;-69
2023/07/01 02:10:16;;;;;;;;;;;20.80;72.70;;;;;;4988364;28;1367;-69
2023/07/01 02:12:41;;;;;;;;;;;20.80;72.70;;;;;;4984129;28;821;-69
2023/07/01 02:15:07;;;;;;;;;;;20.80;72.70;;;;;;4982247;28;884;-69
2023/07/01 02:17:32;;;;;;;;;;;20.90;72.80;;;;;;4983374;28;824;-69
2023/07/01 02:19:58;;;;;;;;;;;20.80;72.70;;;;;;4976792;28;1428;-69
2023/07/01 02:22:23;;;;;;;;;;;20.80;72.70;;;;;;4982531;28;1023;-70
2023/07/01 02:24:49;;;;;;;;;;;20.90;72.80;;;;;;4984943;28;1301;-69
2023/07/01 02:27:14;;;;;;;;;;;20.80;72.70;;;;;;4986530;28;1309;-69
2023/07/01 02:29:40;;;;;;;;;;;20.80;72.70;;;;;;4989013;28;1906;-69
2023/07/01 02:32:06;;;;;;;;;;;20.80;72.70;;;;;;4989452;28;1273;-69
2023/07/01 02:34:32;;;;;;;;;;;20.90;72.80;;;;;;4988639;28;1408;-68
2023/07/01 02:36:57;;;;;;;;;;;20.80;72.70;;;;;;4987255;28;1393;-70
2023/07/01 02:39:23;;;;;;;;;;;20.80;72.70;;;;;;4985016;28;1370;-70
2023/07/01 02:41:48;;;;;;;;;;;20.90;72.80;;;;;;4987690;28;1389;-69
2023/07/01 02:44:14;;;;;;;;;;;20.80;72.70;;;;;;4985688;28;1253;-69
2023/07/01 02:46:39;;;;;;;;;;;20.80;72.70;;;;;;4984578;28;1416;-68
2023/07/01 02:49:05;;;;;;;;;;;20.80;72.70;;;;;;4986087;28;1906;-71
2023/07/01 02:51:30;;;;;;;;;;;20.80;72.70;;;;;;4987473;28;1641;-69
2023/07/01 02:53:56;;;;;;;;;;;20.80;72.70;;;;;;4986481;28;935;-70
2023/07/01 02:56:21;;;;;;;;;;;20.80;72.70;;;;;;4988203;28;858;-70
2023/07/01 02:58:46;;;;;;;;;;;20.80;72.70;;;;;;4984717;28;885;-69
2023/07/01 03:01:13;;;;;;;;;;;20.90;72.80;;;;;;4983010;28;1234;-69
2023/07/01 03:03:39;;;;;;;;;;;20.80;72.70;;;;;;4981377;28;870;-69
2023/07/01 03:06:05;;;;;;;;;;;20.80;72.70;;;;;;4987389;28;822;-69
2023/07/01 03:08:30;;;;;;;;;;;20.80;72.70;;;;;;4992463;28;1918;-69
2023/07/01 03:10:56;;;;;;;;;;;20.80;72.70;;;;;;4987332;28;1344;-69
2023/07/01 03:13:21;;;;;;;;;;;20.80;72.80;;;;;;4989886;28;887;-69
2023/07/01 03:15:46;;;;;;;;;;;20.80;72.70;;;;;;4987688;28;1042;-69
2023/07/01 03:18:12;;;;;;;;;;;20.80;72.70;;;;;;4990519;28;829;-69
2023/07/01 03:20:37;;;;;;;;;;;20.80;72.70;;;;;;4988124;28;1205;-69
2023/07/01 03:23:03;;;;;;;;;;;20.80;72.70;;;;;;4986449;28;876;-69
2023/07/01 03:25:28;;;;;;;;;;;20.80;72.80;;;;;;4989295;28;832;-69
2023/07/01 03:27:54;;;;;;;;;;;20.80;72.80;;;;;;4987164;28;1978;-69
2023/07/01 03:30:20;;;;;;;;;;;20.80;72.70;;;;;;4988169;28;1354;-69
2023/07/01 03:32:46;;;;;;;;;;;20.80;72.70;;;;;;4987630;28;860;-69
2023/07/01 03:35:12;;;;;;;;;;;20.80;72.70;;;;;;4989849;28;1062;-69
2023/07/01 03:37:38;;;;;;;;;;;20.80;72.70;;;;;;4987021;28;833;-69
2023/07/01 03:40:04;;;;;;;;;;;20.80;72.70;;;;;;4980779;28;1257;-69
2023/07/01 03:42:30;;;;;;;;;;;20.80;72.70;;;;;;4991653;28;1076;-69
2023/07/01 03:44:55;;;;;;;;;;;20.80;72.70;;;;;;4986009;28;958;-69
2023/07/01 03:47:22;;;;;;;;;;;20.80;72.80;;;;;;4986692;28;1027;-69
2023/07/01 03:49:48;;;;;;;;;;;20.80;72.70;;;;;;4986171;28;1906;-69
2023/07/01 03:52:13;;;;;;;;;;;20.80;72.80;;;;;;4988483;28;947;-69
2023/07/01 03:54:39;;;;;;;;;;;20.80;72.80;;;;;;4986841;28;1019;-69
2023/07/01 03:57:04;;;;;;;;;;;20.80;72.80;;;;;;4988734;28;836;-69
2023/07/01 03:59:30;;;;;;;;;;;20.80;72.80;;;;;;4990006;28;1311;-69
2023/07/01 04:01:55;;;;;;;;;;;20.80;72.70;;;;;;4981472;28;963;-69
2023/07/01 04:04:21;;;;;;;;;;;20.80;72.80;;;;;;4983745;28;870;-69
2023/07/01 04:06:46;;;;;;;;;;;20.80;72.70;;;;;;4987603;28;880;-69
2023/07/01 04:09:12;;;;;;;;;;;20.80;72.80;;;;;;4988107;28;1934;-69
2023/07/01 04:11:40;;;;;;;;;;;20.80;72.80;;;;;;4982536;28;1243;-69
2023/07/01 04:14:06;;;;;;;;;;;20.80;72.80;;;;;;4989758;28;866;-69
2023/07/01 04:16:32;;;;;;;;;;;20.80;72.80;;;;;;4987683;28;808;-69
2023/07/01 04:18:59;;;;;;;;;;;20.80;72.80;;;;;;4989883;28;855;-69
2023/07/01 04:21:25;;;;;;;;;;;20.80;72.80;;;;;;4987135;28;1291;-69
2023/07/01 04:23:50;;;;;;;;;;;20.80;72.80;;;;;;4984949;28;896;-69
2023/07/01 04:26:16;;;;;;;;;;;20.80;72.80;;;;;;4988657;28;1321;-69
2023/07/01 04:28:41;;;;;;;;;;;20.80;72.80;;;;;;4988691;28;1973;-69
2023/07/01 04:31:07;;;;;;;;;;;20.80;72.80;;;;;;4987793;28;1297;-69
2023/07/01 04:33:32;;;;;;;;;;;20.80;72.80;;;;;;4988243;28;1083;-69
2023/07/01 04:36:00;;;;;;;;;;;20.80;72.80;;;;;;4983404;28;796;-69
2023/07/01 04:38:26;;;;;;;;;;;20.80;72.80;;;;;;4981876;28;895;-69
2023/07/01 04:40:53;;;;;;;;;;;20.80;72.80;;;;;;4986554;28;1355;-69
2023/07/01 04:43:18;;;;;;;;;;;20.80;72.80;;;;;;4984018;28;904;-69
2023/07/01 04:45:44;;;;;;;;;;;20.80;72.80;;;;;;4986488;28;867;-68
2023/07/01 04:48:10;;;;;;;;;;;20.80;72.70;;;;;;4986770;28;2100;-72
2023/07/01 04:50:35;;;;;;;;;;;20.80;72.70;;;;;;4988424;28;1462;-72
2023/07/01 04:53:01;;;;;;;;;;;20.80;72.80;;;;;;5005639;28;1447;-71
2023/07/01 04:55:26;;;;;;;;;;;20.80;72.80;;;;;;4987620;28;1268;-70
2023/07/01 04:57:52;;;;;;;;;;;20.80;72.80;;;;;;4990478;28;1077;-69
2023/07/01 05:00:17;;;;;;;;;;;20.80;72.80;;;;;;4988197;28;1354;-74
2023/07/01 05:02:43;;;;;;;;;;;20.80;72.80;;;;;;4982441;28;1014;-70
2023/07/01 05:05:08;;;;;;;;;;;20.80;72.80;;;;;;4982673;28;839;-70
2023/07/01 05:07:34;;;;;;;;;;;20.80;72.80;;;;;;4980156;28;1311;-70
2023/07/01 05:09:59;;;;;;;;;;;20.80;72.80;;;;;;4986693;28;1911;-70
2023/07/01 05:12:26;;;;;;;;;;;20.80;72.80;;;;;;4985276;28;884;-70
2023/07/01 05:14:52;;;;;;;;;;;20.80;72.80;;;;;;4986423;28;833;-71
2023/07/01 05:17:17;;;;;;;;;;;20.80;72.80;;;;;;4974490;28;1440;-71
2023/07/01 05:19:43;;;;;;;;;;;20.80;72.80;;;;;;4986885;28;1379;-71
2023/07/01 05:22:08;;;;;;;;;;;20.80;72.80;;;;;;4982634;28;1606;-71
2023/07/01 05:24:34;;;;;;;;;;;20.80;72.80;;;;;;4985654;28;824;-73
2023/07/01 05:26:59;;;;;;;;;;;20.80;72.80;;;;;;4987804;28;882;-69
2023/07/01 05:29:26;;;;;;;;;;;20.80;72.80;;;;;;4984384;28;1906;-68
2023/07/01 05:31:52;;;;;;;;;;;20.80;72.80;;;;;;4983016;28;918;-73
2023/07/01 05:34:17;;;;;;;;;;;20.80;72.80;;;;;;4982261;28;925;-70
2023/07/01 05:36:43;;;;;;;;;;;20.80;72.80;;;;;;4988084;28;836;-69
2023/07/01 05:39:09;;;;;;;;;;;20.80;72.80;;;;;;4985702;28;808;-71
2023/07/01 05:41:35;;;;;;;;;;;20.80;72.90;;;;;;4982011;28;1361;-72
2023/07/01 05:44:00;;;;;;;;;;;20.80;72.80;;;;;;4983139;28;954;-73
2023/07/01 05:46:26;;;;;;;;;;;20.80;72.80;;;;;;4981857;28;1067;-73
2023/07/01 05:48:52;;;;;;;;;;;20.80;72.80;;;;;;4986860;28;1910;-73
2023/07/01 05:51:17;;;;;;;;;;;20.80;72.80;;;;;;4989090;28;1272;-73
2023/07/01 05:53:44;;;;;;;;;;;20.80;72.80;;;;;;4984199;28;818;-71
2023/07/01 05:56:10;;;;;;;;;;;20.80;72.80;;;;;;4983044;28;876;-70
2023/07/01 05:58:35;;;;;;;;;;;20.80;72.80;;;;;;4985042;28;840;-70
2023/07/01 06:01:00;;;;;;;;;;;20.80;72.80;;;;;;4982414;28;1354;-71
2023/07/01 06:03:26;;;;;;;;;;;20.80;72.80;;;;;;4984593;28;866;-71
2023/07/01 06:05:51;;;;;;;;;;;20.80;72.80;;;;;;4987510;28;876;-71
2023/07/01 06:08:17;;;;;;;;;;;20.80;72.60;;;;;;4983419;28;1899;-71
2023/07/01 06:10:42;;;;;;;;;;;20.80;72.30;;;;;;4985313;28;1319;-71
2023/07/01 06:13:08;;;;;;;;;;;20.80;71.90;;;;;;4986458;28;978;-71
2023/07/01 06:15:33;;;;;;;;;;;20.80;71.70;;;;;;4988715;28;884;-72
2023/07/01 06:17:59;;;;;;;;;;;20.80;71.60;;;;;;4984915;28;943;-71
2023/07/01 06:20:24;;;;;;;;;;;20.80;71.40;;;;;;4979949;28;1254;-70
2023/07/01 06:22:50;;;;;;;;;;;20.80;71.30;;;;;;4986561;28;963;-71
2023/07/01 06:25:15;;;;;;;;;;;20.80;71.20;;;;;;4986624;28;867;-70
2023/07/01 06:27:40;;;;;;;;;;;20.80;71.70;;;;;;4983417;28;1387;-71
2023/07/01 06:30:06;;;;;;;;;;;20.80;70.60;;;;;;4982971;28;1902;-72
2023/07/01 06:32:32;;;;;;;;;;;20.80;70.50;;;;;;4985212;28;1398;-75
2023/07/01 06:34:57;;;;;;;;;;;20.80;70.10;;;;;;4988347;28;872;-75
2023/07/01 06:37:23;;;;;;;;;;;20.80;70.20;;;;;;4985149;28;1061;-74
2023/07/01 06:39:48;;;;;;;;;;;20.80;70.10;;;;;;4983386;28;1347;-75
2023/07/01 06:42:14;;;;;;;;;;;20.80;70.00;;;;;;4991051;28;977;-75
2023/07/01 06:44:39;;;;;;;;;;;20.80;70.00;;;;;;4985032;28;1457;-71
2023/07/01 06:47:05;;;;;;;;;;;20.80;69.80;;;;;;4987459;28;840;-75
2023/07/01 06:49:31;;;;;;;;;;;20.80;69.60;;;;;;4982172;28;1903;-75
2023/07/01 06:51:57;;;;;;;;;;;20.80;69.70;;;;;;4979829;28;931;-74
2023/07/01 06:54:22;;;;;;;;;;;20.80;69.80;;;;;;4988236;28;940;-73
2023/07/01 06:56:47;;;;;;;;;;;20.80;69.60;;;;;;4981293;28;1018;-73
2023/07/01 06:59:13;;;;;;;;;;;20.80;69.00;;;;;;4983281;28;876;-73
2023/07/01 07:01:38;;;;;;;;;;;20.80;68.60;;;;;;4985922;28;1310;-72
2023/07/01 07:04:05;;;;;;;;;;;20.80;68.40;;;;;;4985936;28;831;-73
2023/07/01 07:06:30;;;;;;;;;;;20.90;67.90;;;;;;4989069;28;2423;-73
2023/07/01 07:08:56;;;;;;;;;;;20.80;67.50;;;;;;4989701;28;1891;-72
2023/07/01 07:11:21;;;;;;;;;;;20.80;67.40;;;;;;4981756;28;1183;-73
2023/07/01 07:13:47;;;;;;;;;;;20.90;67.60;;;;;;4982399;28;1369;-73
2023/07/01 07:16:12;;;;;;;;;;;20.90;67.00;;;;;;4980854;28;859;-73
2023/07/01 07:18:37;;;;;;;;;;;20.90;67.40;;;;;;4993673;28;1286;-73
2023/07/01 07:21:03;;;;;;;;;;;20.90;67.20;;;;;;4979881;28;1360;-73
2023/07/01 07:23:28;;;;;;;;;;;20.90;66.60;;;;;;4981876;28;918;-73
2023/07/01 07:25:54;;;;;;;;;;;20.90;66.10;;;;;;4983604;28;955;-73
2023/07/01 07:28:19;;;;;;;;;;;20.90;65.50;;;;;;4984628;28;1954;-73
2023/07/01 07:30:45;;;;;;;;;;;20.90;65.40;;;;;;4989314;28;1241;-73
2023/07/01 07:33:10;;;;;;;;;;;20.90;66.10;;;;;;4984636;28;829;-73
2023/07/01 07:35:36;;;;;;;;;;;20.90;65.20;;;;;;4983114;28;1437;-73
2023/07/01 07:38:02;;;;;;;;;;;20.90;65.40;;;;;;4984616;28;898;-73
2023/07/01 07:40:27;;;;;;;;;;;20.90;65.60;;;;;;4986496;28;1386;-73
2023/07/01 07:42:53;;;;;;;;;;;20.90;65.80;;;;;;4986538;28;1027;-73
2023/07/01 07:45:20;;;;;;;;;;;20.90;64.90;;;;;;4988324;28;899;-73
2023/07/01 07:47:46;;;;;;;;;;;20.90;64.20;;;;;;4988095;28;1898;-73
2023/07/01 07:50:12;;;;;;;;;;;20.90;62.20;;;;;;4982983;28;1301;-73
2023/07/01 07:52:38;;;;;;;;;;;20.90;63.90;;;;;;5003651;28;1313;-73
2023/07/01 07:55:04;;;;;;;;;;;20.90;61.30;;;;;;4983871;28;876;-73
2023/07/01 07:57:29;;;;;;;;;;;21.00;62.10;;;;;;4989782;28;920;-72
2023/07/01 07:59:54;;;;;;;;;;;21.00;61.80;;;;;;4974600;28;1303;-73
2023/07/01 08:02:21;;;;;;;;;;;21.00;60.30;;;;;;4992552;28;917;-72
2023/07/01 08:04:47;;;;;;;;;;;21.00;60.50;;;;;;4990307;28;909;-72
2023/07/01 08:07:12;;;;;;;;;;;21.00;59.50;;;;;;4982822;28;926;-73
2023/07/01 08:09:38;;;;;;;;;;;21.00;59.30;;;;;;4987388;28;1907;-73
2023/07/01 08:12:03;;;;;;;;;;;21.00;58.60;;;;;;4982823;28;1281;-72
2023/07/01 08:14:32;;;;;;;;;;;21.00;59.40;;;;;;4991780;28;996;-72
2023/07/01 08:16:58;;;;;;;;;;;21.00;59.80;;;;;;4989037;28;961;-72
2023/07/01 08:19:23;;;;;;;;;;;21.00;59.00;;;;;;4990107;28;1368;-72
2023/07/01 08:21:49;;;;;;;;;;;21.00;58.80;;;;;;4981932;28;891;-73
2023/07/01 08:24:18;;;;;;;;;;;21.00;59.00;;;;;;4985245;28;1005;-73
2023/07/01 08:26:43;;;;;;;;;;;21.00;58.90;;;;;;4990030;28;808;-73
2023/07/01 08:29:09;;;;;;;;;;;21.00;59.10;;;;;;4983435;28;1911;-73
2023/07/01 08:31:34;;;;;;;;;;;21.00;59.30;;;;;;4974381;28;1273;-73
2023/07/01 08:34:00;;;;;;;;;;;21.00;59.60;;;;;;4988356;28;808;-73
2023/07/01 08:36:25;;;;;;;;;;;21.10;58.90;;;;;;4989120;28;860;-73
2023/07/01 08:38:51;;;;;;;;;;;21.10;58.60;;;;;;4986680;28;903;-73
2023/07/01 08:41:16;;;;;;;;;;;21.10;58.50;;;;;;4982382;28;1248;-73
2023/07/01 08:43:42;;;;;;;;;;;21.10;58.50;;;;;;4983218;28;1365;-73
2023/07/01 08:46:12;;;;;;;;;;;21.10;58.70;;;;;;5005108;28;1060;-72
2023/07/01 08:48:37;;;;;;;;;;;21.10;58.50;;;;;;4987200;28;1910;-73
2023/07/01 08:51:09;;;;;;;;;;;21.10;57.90;;;;;;4986951;28;1299;-73
2023/07/01 08:53:35;;;;;;;;;;;21.10;57.40;;;;;;4988249;28;954;-72
2023/07/01 08:56:01;;;;;;;;;;;21.10;57.80;;;;;;4991043;28;1042;-73
2023/07/01 08:58:26;;;;;;;;;;;21.10;58.50;;;;;;4979004;28;862;-73
2023/07/01 09:00:52;;;;;;;;;;;21.10;57.90;;;;;;4980140;28;1260;-73
2023/07/01 09:03:17;;;;;;;;;;;21.10;57.80;;;;;;5002897;28;841;-73
2023/07/01 09:05:42;;;;;;;;;;;21.10;57.50;;;;;;4989184;28;1532;-73
2023/07/01 09:08:08;;;;;;;;;;;21.10;57.60;;;;;;4987128;28;1958;-73
2023/07/01 09:10:34;;;;;;;;;;;21.10;57.80;;;;;;4985836;28;1253;-73
2023/07/01 09:13:12;;;;;;;;;;;21.10;57.90;;;;;;4985732;28;820;-73
2023/07/01 09:15:47;;;;;;;;;;;21.20;57.90;;;;;;4986003;28;824;-73
2023/07/01 09:18:22;;;;;;;;;;;21.10;57.90;;;;;;4981742;28;821;-73
2023/07/01 09:20:49;;;;;;;;;;;21.10;57.50;;;;;;4988655;28;1347;-72
2023/07/01 09:23:26;;;;;;;;;;;21.10;57.20;;;;;;4984821;28;900;-73
2023/07/01 09:25:52;;;;;;;;;;;21.10;57.60;;;;;;4986430;28;832;-73
2023/07/01 09:28:30;;;;;;;;;;;21.20;57.60;;;;;;4979187;28;1961;-72
2023/07/01 09:31:00;;;;;;;;;;;21.20;57.80;;;;;;4986173;28;1330;-72
2023/07/01 09:33:26;;;;;;;;;;;21.20;58.70;;;;;;4987329;28;1236;-73
2023/07/01 09:35:57;;;;;;;;;;;21.20;58.30;;;;;;4983442;28;864;-72
2023/07/01 09:38:25;;;;;;;;;;;21.20;58.70;;;;;;4981179;28;851;-73
2023/07/01 09:40:51;;;;;;;;;;;21.20;58.60;;;;;;4988394;28;1284;-73
2023/07/01 09:43:19;;;;;;;;;;;21.20;58.40;;;;;;4981514;28;1373;-73
2023/07/01 09:45:59;;;;;;;;;;;21.20;58.30;;;;;;4980058;28;857;-72
2023/07/01 09:48:25;;;;;;;;;;;21.20;58.10;;;;;;4985470;28;1902;-73
2023/07/01 09:50:51;;;;;;;;;;;21.20;57.50;;;;;;4986521;28;1244;-73
2023/07/01 09:53:20;;;;;;;;;;;21.20;57.50;;;;;;4981089;28;1054;-72
2023/07/01 09:55:46;;;;;;;;;;;21.20;57.30;;;;;;4976827;28;919;-72
2023/07/01 09:58:11;;;;;;;;;;;21.20;57.20;;;;;;4985812;28;915;-72
2023/07/01 10:00:38;;;;;;;;;;;21.20;56.90;;;;;;4987364;28;1316;-73
2023/07/01 10:03:03;;;;;;;;;;;21.30;57.20;;;;;;4984253;28;819;-73
2023/07/01 10:05:28;;;;;;;;;;;21.30;57.70;;;;;;4983899;28;831;-73
2023/07/01 10:07:54;;;;;;;;;;;21.30;57.70;;;;;;4983328;28;1954;-72
2023/07/01 10:10:21;;;;;;;;;;;21.30;57.80;;;;;;4986242;28;1335;-72
2023/07/01 10:12:47;;;;;;;;;;;21.30;57.60;;;;;;4984163;28;1312;-73
2023/07/01 10:15:12;;;;;;;;;;;21.30;57.60;;;;;;4982528;28;925;-72
2023/07/01 10:17:47;;;;;;;;;;;21.30;57.50;;;;;;4983990;28;1062;-73
2023/07/01 10:20:29;;;;;;;;;;;21.30;57.60;;;;;;4986912;28;1332;-73
2023/07/01 10:22:58;;;;;;;;;;;21.30;57.50;;;;;;4989649;28;919;-72
2023/07/01 10:25:33;;;;;;;;;;;21.30;56.90;;;;;;4989531;28;893;-73
2023/07/01 10:28:01;;;;;;;;;;;21.30;57.00;;;;;;4988682;28;1986;-73
2023/07/01 10:30:26;;;;;;;;;;;21.30;57.10;;;;;;4988520;28;1356;-72
2023/07/01 10:32:52;;;;;;;;;;;21.30;57.50;;;;;;4983146;28;923;-72
2023/07/01 10:35:17;;;;;;;;;;;21.30;57.60;;;;;;4983602;28;880;-73
2023/07/01 10:38:03;;;;;;;;;;;21.30;57.40;;;;;;4982785;28;932;-72
2023/07/01 10:40:29;;;;;;;;;;;21.30;57.60;;;;;;4979180;28;1379;-72
2023/07/01 10:43:13;;;;;;;;;;;21.30;57.60;;;;;;4983206;28;1287;-73
2023/07/01 10:45:39;;;;;;;;;;;21.30;57.50;;;;;;4986606;28;938;-73
2023/07/01 10:48:07;;;;;;;;;;;21.40;56.80;;;;;;4983080;28;1903;-73
2023/07/01 10:50:33;;;;;;;;;;;21.40;57.10;;;;;;4979303;28;1292;-73
2023/07/01 10:52:59;;;;;;;;;;;21.40;57.30;;;;;;4982817;28;1372;-72
2023/07/01 10:55:38;;;;;;;;;;;21.40;57.20;;;;;;4987170;28;771;-73
2023/07/01 10:58:17;;;;;;;;;;;21.40;57.30;;;;;;4988359;28;1221;-73
2023/07/01 11:00:42;;;;;;;;;;;21.40;57.60;;;;;;4982983;28;1283;-73
2023/07/01 11:03:31;;;;;;;;;;;21.40;57.70;;;;;;4985539;28;800;-73
2023/07/01 11:05:58;;;;;;;;;;;21.40;57.90;;;;;;4983793;28;1175;-73
2023/07/01 11:08:23;;;;;;;;;;;21.40;58.10;;;;;;4984509;28;2107;-73
2023/07/01 11:10:49;;;;;;;;;;;21.40;57.30;;;;;;4987860;28;2052;-71
2023/07/01 11:13:16;;;;;;;;;;;21.40;57.10;;;;;;4988529;28;1361;-71
2023/07/01 11:15:42;;;;;;;;;;;21.40;57.40;;;;;;4984961;28;1454;-71
2023/07/01 11:18:07;;;;;;;;;;;21.40;57.60;;;;;;4991197;28;968;-71
2023/07/01 11:20:47;;;;;;;;;;;21.40;57.40;;;;;;4987081;28;1328;-71
2023/07/01 11:23:13;;;;;;;;;;;21.40;57.40;;;;;;4990637;28;841;-71
2023/07/01 11:25:41;;;;;;;;;;;21.40;57.60;;;;;;4983667;28;924;-71
2023/07/01 11:28:07;;;;;;;;;;;21.40;57.50;;;;;;4986497;28;1898;-71
2023/07/01 11:30:32;;;;;;;;;;;21.40;57.40;;;;;;5000897;28;1260;-71
2023/07/01 11:33:18;;;;;;;;;;;21.40;57.40;;;;;;4989105;28;884;-72
2023/07/01 11:35:50;;;;;;;;;;;21.40;57.60;;;;;;4987019;28;2182;-72
2023/07/01 11:38:23;;;;;;;;;;;21.40;57.50;;;;;;4991194;28;1454;-72
2023/07/01 11:40:48;;;;;;;;;;;21.40;57.40;;;;;;4990013;28;1367;-73
2023/07/01 11:43:14;;;;;;;;;;;21.40;57.40;;;;;;4985221;28;2131;-73
2023/07/01 11:45:46;;;;;;;;;;;21.40;57.70;;;;;;4988425;28;1205;-74
2023/07/01 11:48:11;;;;;;;;;;;21.40;57.50;;;;;;4987193;28;1903;-73
2023/07/01 11:50:57;;;;;;;;;;;21.40;57.30;;;;;;4988028;28;1266;-74
2023/07/01 11:53:24;;;;;;;;;;;21.40;57.10;;;;;;4989104;28;938;-73
2023/07/01 11:55:49;;;;;;;;;;;21.40;56.80;;;;;;4989651;28;959;-74
2023/07/01 11:58:31;;;;;;;;;;;21.40;56.80;;;;;;4983854;28;841;-73
2023/07/01 12:00:56;;;;;;;;;;;21.40;57.00;;;;;;4984583;28;1314;-72
2023/07/01 12:03:22;;;;;;;;;;;21.40;57.50;;;;;;4985733;28;892;-72
2023/07/01 12:05:47;;;;;;;;;;;21.40;57.20;;;;;;4985421;28;974;-73
2023/07/01 12:08:13;;;;;;;;;;;21.40;57.00;;;;;;4992326;28;1882;-73
2023/07/01 12:10:39;;;;;;;;;;;21.50;56.90;;;;;;4986455;28;1372;-73
2023/07/01 12:13:08;;;;;;;;;;;21.50;56.70;;;;;;4987666;28;849;-72
2023/07/01 12:15:52;;;;;;;;;;;21.50;56.80;;;;;;4983449;28;991;-72
2023/07/01 12:18:22;;;;;;;;;;;21.50;56.80;;;;;;4984481;28;1007;-71
2023/07/01 12:20:47;;;;;;;;;;;21.50;56.70;;;;;;4984855;28;1798;-72
2023/07/01 12:23:13;;;;;;;;;;;21.50;56.50;;;;;;4990291;28;1087;-72
2023/07/01 12:25:38;;;;;;;;;;;21.50;56.50;;;;;;4988248;28;916;-72
2023/07/01 12:28:04;;;;;;;;;;;21.50;56.50;;;;;;4981188;28;1943;-71
2023/07/01 12:30:30;;;;;;;;;;;21.50;56.60;;;;;;4984535;28;1362;-71
2023/07/01 12:32:55;;;;;;;;;;;21.50;56.70;;;;;;4990461;28;813;-72
2023/07/01 12:35:21;;;;;;;;;;;21.50;56.80;;;;;;4980946;28;853;-72
2023/07/01 12:37:46;;;;;;;;;;;21.50;57.10;;;;;;4980792;28;943;-72
2023/07/01 12:40:12;;;;;;;;;;;21.50;55.90;;;;;;4988003;28;1360;-72
2023/07/01 12:42:37;;;;;;;;;;;21.50;55.80;;;;;;4985538;28;1329;-72
2023/07/01 12:45:03;;;;;;;;;;;21.50;55.90;;;;;;4987001;28;1061;-73
2023/07/01 12:47:28;;;;;;;;;;;21.50;56.20;;;;;;4986538;28;1453;-72
2023/07/01 12:49:54;;;;;;;;;;;21.50;56.20;;;;;;4986172;28;1938;-72
2023/07/01 12:52:19;;;;;;;;;;;21.50;56.00;;;;;;4984516;28;1042;-72
2023/07/01 12:54:48;;;;;;;;;;;21.50;56.00;;;;;;4981733;28;856;-72
2023/07/01 12:57:13;;;;;;;;;;;21.50;56.70;;;;;;4986059;28;857;-72
2023/07/01 12:59:39;;;;;;;;;;;21.60;56.80;;;;;;4983049;28;1320;-72
2023/07/01 13:02:04;;;;;;;;;;;21.60;57.00;;;;;;4988977;28;1636;-71
2023/07/01 13:04:30;;;;;;;;;;;21.50;57.10;;;;;;4983682;28;847;-72
2023/07/01 13:06:56;;;;;;;;;;;21.50;57.10;;;;;;4980500;28;932;-72
2023/07/01 13:09:34;;;;;;;;;;;21.50;57.40;;;;;;4985493;28;1906;-71
2023/07/01 13:12:00;;;;;;;;;;;21.50;57.40;;;;;;4983989;28;1855;-71
2023/07/01 13:14:25;;;;;;;;;;;21.50;57.30;;;;;;4982664;28;1295;-72
2023/07/01 13:16:51;;;;;;;;;;;21.50;57.80;;;;;;4983186;28;1414;-72
2023/07/01 13:19:16;;;;;;;;;;;21.50;58.50;;;;;;4982707;28;873;-72
2023/07/01 13:21:43;;;;;;;;;;;21.50;58.80;;;;;;4988227;28;1551;-72
2023/07/01 13:24:09;;;;;;;;;;;21.40;58.80;;;;;;4984933;28;885;-72
2023/07/01 13:26:35;;;;;;;;;;;21.40;58.10;;;;;;4985992;28;849;-72
2023/07/01 13:29:00;;;;;;;;;;;21.40;58.10;;;;;;4979909;28;1961;-71
2023/07/01 13:31:26;;;;;;;;;;;21.50;58.40;;;;;;4981945;28;1289;-71
2023/07/01 13:33:56;;;;;;;;;;;21.50;59.00;;;;;;4985830;28;884;-72
2023/07/01 13:36:22;;;;;;;;;;;21.40;59.80;;;;;;4979615;28;974;-72
2023/07/01 13:38:48;;;;;;;;;;;21.40;59.30;;;;;;4982451;28;955;-72
2023/07/01 13:41:14;;;;;;;;;;;21.40;59.40;;;;;;4985385;28;1335;-72
2023/07/01 13:43:40;;;;;;;;;;;21.40;59.50;;;;;;4979990;28;1590;-72
2023/07/01 13:46:05;;;;;;;;;;;21.40;59.40;;;;;;4983783;28;891;-72
2023/07/01 13:48:35;;;;;;;;;;;21.40;59.40;;;;;;4983098;28;1976;-72
2023/07/01 13:51:01;;;;;;;;;;;21.30;59.40;;;;;;4985226;28;1383;-72
2023/07/01 13:53:26;;;;;;;;;;;21.40;59.50;;;;;;4987309;28;906;-72
2023/07/01 13:55:52;;;;;;;;;;;21.30;59.40;;;;;;4988210;28;1078;-72
2023/07/01 13:58:17;;;;;;;;;;;21.40;59.60;;;;;;4988262;28;800;-72
2023/07/01 14:00:44;;;;;;;;;;;21.30;59.60;;;;;;4984057;28;1258;-72
2023/07/01 14:03:19;;;;;;;;;;;21.30;59.80;;;;;;4987410;28;948;-72
2023/07/01 14:05:45;;;;;;;;;;;21.30;59.70;;;;;;4988108;28;851;-72
2023/07/01 14:08:10;;;;;;;;;;;21.30;59.70;;;;;;4985005;28;1966;-71
2023/07/01 14:10:36;;;;;;;;;;;21.30;59.80;;;;;;4984781;28;1364;-72
2023/07/01 14:13:06;;;;;;;;;;;21.30;59.80;;;;;;4989850;28;1118;-72
2023/07/01 14:15:39;;;;;;;;;;;21.30;59.90;;;;;;4981028;28;1015;-72
2023/07/01 14:18:12;;;;;;;;;;;21.30;60.00;;;;;;4986142;28;875;-72
2023/07/01 14:20:39;;;;;;;;;;;21.30;59.80;;;;;;4983892;28;1338;-72
2023/07/01 14:23:08;;;;;;;;;;;21.30;59.70;;;;;;4984008;28;950;-72
2023/07/01 14:25:34;;;;;;;;;;;21.30;59.60;;;;;;4987154;28;884;-73
2023/07/01 14:28:03;;;;;;;;;;;21.30;59.70;;;;;;4981927;28;1483;-72
2023/07/01 14:30:41;;;;;;;;;;;21.30;59.70;;;;;;4978916;28;2115;-73
2023/07/01 14:33:06;;;;;;;;;;;21.30;59.70;;;;;;4982952;28;1380;-73